HTZA

Abeid Amani Karume International Airport

Zanzibar, Tanzania
METAR HTZA 181500Z 05010KT 9999 SCT020 29/25 Q1009 NOSIG
Observed Flight Rules
Oct-18 @ 15:00 UTC (57 minutes ago) Visual Flight Rules
Wind Visibility Clouds
50° at 10 knots 10,000+ meters
  • Scattered at 2,000' AGL
Temperatures Readings
Current 29°C / 84°F
Dewpoint 25°C / 77°F
Humidity 79%
Altimeter 29.79" Hg
Pressure 1009 hPa
Elevation 15
METAR HTZA 181500Z 05010KT 9999 SCT020 29/25 Q1009 NOSIG
Observed Flight Rules
Oct-18 @ 15:00 UTC
(57 minutes ago)
VFR
Wind Visibility
50° at 10 knots 10,000+ meters
Clouds
  • Scattered at 2,000' AGL
Temperature Dewpoint
29°C / 84°F 25°C / 77°F
Humidity Altimeter Pressure
79% 29.79" Hg 1009 hPa